Time;durP1;ratioP1;P1;durP2;ratioP2;P2;SDS_P1;SDS_P2;PMS_P1;PMS_P2;Temp;Humidity;BMP_temperature;BMP_pressure;BME280_temperature;BME280_humidity;BME280_pressure;Samples;Min_cycle;Max_cycle;Signal;HPM_P1;HPM_P2
2021/08/29 00:09:59;;;;;;;24.80;15.90;;;;;;;12.07;74.78;98400.49;456951;1196;108505;-43
2021/08/29 00:20:03;;;;;;;23.70;15.90;;;;;;;11.83;74.96;98399.15;457640;1196;97234;-42
2021/08/29 00:30:07;;;;;;;31.60;19.20;;;;;;;11.91;75.52;98395.65;457220;1201;107824;-42
2021/08/29 00:40:14;;;;;;;26.00;16.90;;;;;;;12.04;75.54;98394.34;457142;1194;97911;-41
2021/08/29 00:50:18;;;;;;;27.70;19.10;;;;;;;12.18;75.81;98389.61;457015;1202;110579;-41
2021/08/29 01:00:21;;;;;;;28.30;19.00;;;;;;;12.28;76.01;98391.59;457139;1201;107618;-42
2021/08/29 01:10:24;;;;;;;45.30;24.80;;;;;;;12.35;76.06;98389.30;457598;1201;97635;-42
2021/08/29 01:30:48;;;;;;;45.70;23.80;;;;;;;12.35;76.40;98385.85;457541;1201;97260;-42
2021/08/29 01:40:52;;;;;;;45.70;26.80;;;;;;;12.43;76.53;98383.23;457341;1201;109765;-42
2021/08/29 01:50:56;;;;;;;37.00;25.50;;;;;;;12.47;76.54;98381.48;458098;1195;107986;-42
2021/08/29 02:01:03;;;;;;;39.40;24.80;;;;;;;12.57;76.69;98373.02;457161;1193;97710;-43
2021/08/29 02:11:08;;;;;;;39.20;26.10;;;;;;;12.43;76.45;98366.95;457216;1193;107563;-42
2021/08/29 02:21:16;;;;;;;38.30;23.90;;;;;;;12.39;76.91;98351.70;457572;1201;97245;-42
2021/08/29 02:31:19;;;;;;;28.80;20.90;;;;;;;12.58;76.99;98342.95;457460;1194;110152;-42
2021/08/29 02:41:23;;;;;;;39.90;26.60;;;;;;;12.46;76.75;98339.10;457289;1193;108428;-42
2021/08/29 02:51:27;;;;;;;44.50;25.90;;;;;;;12.19;76.74;98338.36;457327;1194;98366;-42
2021/08/29 03:01:31;;;;;;;35.60;21.20;;;;;;;11.84;76.62;98330.48;457109;1194;97274;-42
2021/08/29 03:11:35;;;;;;;32.60;21.50;;;;;;;11.81;76.91;98320.44;457453;1193;108389;-43
2021/08/29 03:21:38;;;;;;;26.90;16.70;;;;;;;11.78;76.91;98334.95;457619;1200;97259;-42
2021/08/29 03:31:41;;;;;;;24.40;16.00;;;;;;;11.72;76.81;98341.06;457173;1201;108203;-43
2021/08/29 03:41:46;;;;;;;31.00;18.50;;;;;;;11.46;76.97;98342.58;457126;1193;97714;-42
2021/08/29 03:51:49;;;;;;;25.80;19.10;;;;;;;11.44;77.39;98350.88;457420;1201;97777;-43
2021/08/29 04:01:52;;;;;;;26.00;17.70;;;;;;;11.53;77.57;98337.55;457374;1201;108515;-43
2021/08/29 04:11:58;;;;;;;27.70;16.90;;;;;;;11.67;77.82;98319.39;457473;1200;96409;-42
2021/08/29 04:22:01;;;;;;;20.40;14.80;;;;;;;11.81;77.72;98317.09;457531;1200;110722;-42
2021/08/29 04:32:05;;;;;;;21.60;14.20;;;;;;;11.90;77.78;98318.93;457422;1200;108291;-42
2021/08/29 04:42:09;;;;;;;20.70;12.90;;;;;;;11.91;77.66;98323.76;457745;1194;97246;-42
2021/08/29 04:52:13;;;;;;;17.20;13.60;;;;;;;12.03;77.88;98338.79;457827;1200;108836;-42
2021/08/29 05:02:16;;;;;;;19.10;13.00;;;;;;;12.28;78.06;98338.63;457516;1200;96411;-43
2021/08/29 05:12:20;;;;;;;21.50;13.60;;;;;;;12.56;78.15;98334.64;457461;1200;110728;-44
2021/08/29 05:22:24;;;;;;;20.20;14.90;;;;;;;12.82;78.15;98336.39;457615;1200;108391;-42
2021/08/29 05:32:28;;;;;;;19.20;15.10;;;;;;;13.12;78.06;98335.70;457201;1193;97787;-43
2021/08/29 05:42:32;;;;;;;40.40;26.20;;;;;;;13.41;77.95;98335.48;457367;1200;108698;-43
2021/08/29 05:52:35;;;;;;;38.20;23.80;;;;;;;13.56;77.88;98341.27;457390;1192;98451;-43
2021/08/29 06:02:39;;;;;;;21.20;16.00;;;;;;;13.66;77.51;98345.84;457065;1194;96891;-42
2021/08/29 06:12:43;;;;;;;18.90;15.70;;;;;;;13.79;77.48;98356.67;457478;1192;107431;-43
2021/08/29 06:22:46;;;;;;;23.60;16.90;;;;;;;14.02;77.51;98349.61;457138;1201;97654;-43
2021/08/29 06:32:50;;;;;;;22.10;15.70;;;;;;;14.28;77.41;98352.70;457137;1194;111006;-43
2021/08/29 06:42:54;;;;;;;22.30;16.90;;;;;;;14.44;77.16;98349.18;457053;1201;108478;-43
2021/08/29 06:52:58;;;;;;;20.50;17.90;;;;;;;14.53;77.14;98345.17;457658;1192;98321;-43
2021/08/29 07:03:02;;;;;;;21.40;17.00;;;;;;;14.93;77.08;98340.35;457242;1192;98230;-43
2021/08/29 07:13:06;;;;;;;18.40;15.30;;;;;;;15.34;76.79;98341.48;456974;1201;109201;-43
2021/08/29 07:23:10;;;;;;;22.10;17.40;;;;;;;15.69;76.73;98345.77;457105;1200;97248;-42
2021/08/29 07:33:14;;;;;;;19.00;15.40;;;;;;;16.11;76.63;98345.47;457157;1200;107370;-42
2021/08/29 07:43:17;;;;;;;20.90;16.20;;;;;;;16.55;76.30;98345.83;456923;1201;97656;-42
2021/08/29 07:53:21;;;;;;;17.40;14.10;;;;;;;16.63;75.42;98346.52;457250;1200;97764;-45
2021/08/29 08:03:24;;;;;;;18.50;15.30;;;;;;;16.93;75.53;98345.83;457013;1200;107815;-43
2021/08/29 08:23:33;;;;;;;17.80;13.00;;;;;;;16.87;74.53;98336.16;457049;1200;110611;-42
2021/08/29 08:33:37;;;;;;;15.70;12.60;;;;;;;17.04;74.43;98331.96;457371;1193;97285;-42
2021/08/29 08:53:46;;;;;;;15.00;11.20;;;;;;;18.54;73.01;98315.14;457212;1200;110722;-42
2021/08/29 09:03:51;;;;;;;12.80;11.20;;;;;;;18.81;71.94;98315.30;457181;1195;98944;-41
2021/08/29 09:13:58;;;;;;;16.30;12.20;;;;;;;18.72;70.76;98319.98;457596;1192;97930;-41
2021/08/29 09:24:09;;;;;;;14.80;11.30;;;;;;;18.57;69.99;98315.14;457212;1200;97931;-42
2021/08/29 09:34:14;;;;;;;11.70;10.30;;;;;;;19.22;69.98;98298.09;457302;1197;109830;-41
2021/08/29 09:44:23;;;;;;;12.00;8.90;;;;;;;19.65;68.82;98295.87;457545;1200;108454;-42
2021/08/29 09:54:31;;;;;;;10.00;8.60;;;;;;;19.82;67.40;98294.36;457497;1195;97649;-41
2021/08/29 10:04:45;;;;;;;11.60;5.60;;;;;;;20.22;66.07;98291.69;457040;1201;109795;-42
2021/08/29 10:14:52;;;;;;;6.60;6.00;;;;;;;20.66;64.13;98284.09;457256;1201;108540;-41
2021/08/29 10:25:11;;;;;;;6.50;5.90;;;;;;;19.57;61.45;98284.71;457252;1201;108658;-41
2021/08/29 10:35:23;;;;;;;8.90;6.00;;;;;;;19.91;63.22;98276.09;457186;1194;97668;-41
2021/08/29 10:45:44;;;;;;;8.60;6.80;;;;;;;20.25;61.26;98278.48;457406;1194;109885;-40
2021/08/29 11:06:47;;;;;;;7.90;7.10;;;;;;;18.90;61.15;98285.91;457753;1201;108952;-44
2021/08/29 11:17:10;;;;;;;8.40;7.40;;;;;;;18.51;61.88;98281.42;457424;1201;98049;-43
2021/08/29 11:27:57;;;;;;;8.70;6.90;;;;;;;18.51;62.61;98274.48;457456;1195;111069;-44
2021/08/29 11:48:32;;;;;;;6.00;4.20;;;;;;;19.47;61.37;98250.23;457413;1201;98459;-41
2021/08/29 11:58:36;;;;;;;6.10;3.90;;;;;;;19.97;60.03;98236.95;457521;1201;98350;-42
2021/08/29 12:09:12;;;;;;;4.30;3.90;;;;;;;20.09;57.89;98238.33;457546;1195;109006;-44
2021/08/29 12:19:16;;;;;;;5.50;4.30;;;;;;;20.15;57.72;98232.30;457477;1201;97650;-42
2021/08/29 12:29:23;;;;;;;4.90;3.50;;;;;;;20.64;57.81;98220.34;457040;1201;97713;-42
2021/08/29 12:39:31;;;;;;;3.60;3.30;;;;;;;20.95;56.26;98217.73;457882;1195;111223;-42
2021/08/29 12:49:34;;;;;;;4.80;3.20;;;;;;;20.97;55.56;98206.91;457155;1195;97652;-43
2021/08/29 13:10:16;;;;;;;4.40;4.00;;;;;;;20.76;55.78;98196.55;457752;1201;97931;-42
2021/08/29 13:20:20;;;;;;;7.20;4.60;;;;;;;20.05;54.91;98201.78;457752;1200;110336;-42
2021/08/29 13:30:25;;;;;;;4.10;3.70;;;;;;;19.40;55.65;98196.60;457802;1201;97912;-44
2021/08/29 13:40:33;;;;;;;3.20;2.70;;;;;;;19.78;55.87;98188.37;457147;1195;97788;-43
2021/08/29 13:50:38;;;;;;;3.70;3.00;;;;;;;20.16;54.27;98172.84;456982;1201;98004;-45
2021/08/29 14:00:42;;;;;;;2.70;2.50;;;;;;;20.40;53.76;98167.86;457130;1201;97675;-45
2021/08/29 14:10:46;;;;;;;3.90;2.90;;;;;;;20.14;53.26;98173.20;457437;1201;108399;-43
2021/08/29 14:20:50;;;;;;;3.10;2.80;;;;;;;19.35;54.73;98185.81;457410;1201;98156;-42
2021/08/29 14:30:54;;;;;;;2.80;2.50;;;;;;;18.81;56.28;98201.08;457607;1202;97682;-43
2021/08/29 14:40:57;;;;;;;4.00;2.70;;;;;;;18.57;57.01;98208.89;457776;1195;108777;-44
2021/08/29 14:51:02;;;;;;;3.40;3.00;;;;;;;18.50;57.73;98204.62;457444;1195;97665;-43
2021/08/29 15:01:05;;;;;;;5.00;2.50;;;;;;;18.42;58.28;98209.59;457698;1199;98312;-42
2021/08/29 15:11:09;;;;;;;4.70;2.60;;;;;;;18.70;58.78;98199.59;457697;1201;108446;-43
2021/08/29 15:31:16;;;;;;;4.30;2.70;;;;;;;19.06;57.86;98181.47;457553;1195;97975;-45
2021/08/29 15:41:20;;;;;;;2.40;2.20;;;;;;;19.03;57.96;98180.71;457687;1194;107999;-42
2021/08/29 15:51:30;;;;;;;2.70;2.40;;;;;;;18.73;57.57;98182.09;457612;1201;97701;-44
2021/08/29 16:01:34;;;;;;;2.90;2.70;;;;;;;18.52;58.03;98192.43;457296;1202;110721;-42
2021/08/29 16:11:39;;;;;;;3.60;2.30;;;;;;;18.33;58.84;98188.90;457624;1201;97656;-42
2021/08/29 16:21:43;;;;;;;2.70;2.50;;;;;;;18.19;59.27;98188.36;457545;1200;97284;-42
2021/08/29 16:31:46;;;;;;;8.60;3.90;;;;;;;18.00;60.34;98187.34;457543;1195;97765;-44
2021/08/29 16:41:50;;;;;;;4.10;3.30;;;;;;;17.80;61.15;98189.15;457559;1193;108638;-43
2021/08/29 16:51:54;;;;;;;3.60;2.80;;;;;;;17.53;62.02;98192.23;457619;1201;97645;-42
2021/08/29 17:01:57;;;;;;;7.40;6.10;;;;;;;17.41;63.02;98194.83;457635;1201;110763;-44
2021/08/29 17:12:02;;;;;;;7.50;5.90;;;;;;;17.15;63.41;98200.28;457509;1201;97371;-45
2021/08/29 17:22:06;;;;;;;8.70;6.20;;;;;;;16.76;64.07;98202.92;457742;1201;98315;-43
2021/08/29 17:32:10;;;;;;;11.50;6.00;;;;;;;16.40;64.74;98232.20;457346;1201;96424;-43
2021/08/29 17:42:12;;;;;;;5.90;4.50;;;;;;;16.09;65.47;98230.58;457529;1201;108134;-44
2021/08/29 17:52:18;;;;;;;7.40;4.00;;;;;;;15.86;66.15;98228.50;457455;1201;97672;-44
2021/08/29 18:02:23;;;;;;;6.90;4.20;;;;;;;15.51;66.82;98236.18;457502;1200;109440;-44
2021/08/29 18:12:27;;;;;;;5.60;4.50;;;;;;;15.49;67.74;98246.24;457539;1201;108808;-43
2021/08/29 18:22:30;;;;;;;9.00;6.70;;;;;;;15.38;68.08;98273.33;457466;1194;97254;-44
2021/08/29 18:32:34;;;;;;;14.20;9.50;;;;;;;15.21;69.14;98294.03;457407;1201;108392;-44
2021/08/29 18:42:37;;;;;;;13.10;9.70;;;;;;;15.14;69.65;98295.46;457265;1201;96625;-43
2021/08/29 18:52:41;;;;;;;11.80;9.10;;;;;;;15.04;70.06;98292.38;457236;1201;110777;-42
2021/08/29 19:02:46;;;;;;;12.80;9.70;;;;;;;14.89;70.45;98287.52;457446;1194;108438;-41
2021/08/29 19:12:51;;;;;;;10.60;7.30;;;;;;;14.69;70.65;98291.08;457420;1201;97383;-44
2021/08/29 19:22:55;;;;;;;14.90;8.30;;;;;;;14.42;71.14;98292.83;456814;1201;107550;-42
2021/08/29 19:32:59;;;;;;;10.30;8.90;;;;;;;14.20;71.38;98283.86;457199;1201;97657;-43
2021/08/29 19:43:03;;;;;;;13.90;9.30;;;;;;;14.17;71.99;98280.38;457155;1201;110760;-43
2021/08/29 19:53:20;;;;;;;17.60;12.80;;;;;;;14.11;72.22;98279.25;457192;1201;108242;-43
2021/08/29 20:03:25;;;;;;;21.30;12.40;;;;;;;13.95;72.23;98274.46;457227;1201;97273;-42
2021/08/29 20:13:29;;;;;;;21.40;15.80;;;;;;;13.74;72.46;98267.94;457074;1201;108167;-42
2021/08/29 20:23:32;;;;;;;17.70;12.90;;;;;;;13.59;72.63;98259.73;457023;1201;97650;-43
2021/08/29 20:33:35;;;;;;;18.30;13.20;;;;;;;13.34;72.79;98250.51;457128;1194;110814;-42
2021/08/29 20:43:40;;;;;;;15.70;12.00;;;;;;;13.38;73.40;98247.23;457188;1195;106752;-42
2021/08/29 20:53:43;;;;;;;19.30;12.30;;;;;;;13.26;73.26;98245.89;457172;1201;96446;-41
2021/08/29 21:03:48;;;;;;;16.90;11.20;;;;;;;12.99;73.35;98248.91;457127;1201;108470;-41
2021/08/29 21:13:52;;;;;;;13.00;9.30;;;;;;;13.01;73.91;98253.98;457162;1201;96351;-42
2021/08/29 21:23:55;;;;;;;15.70;9.60;;;;;;;13.13;74.23;98257.13;457060;1201;110690;-42
2021/08/29 21:33:59;;;;;;;16.00;9.90;;;;;;;13.22;74.31;98256.37;457179;1201;108688;-42
2021/08/29 21:44:05;;;;;;;16.90;10.40;;;;;;;13.31;74.80;98250.70;457108;1193;97646;-42
2021/08/29 21:54:09;;;;;;;18.20;11.10;;;;;;;13.43;74.90;98244.40;457077;1201;108412;-41
2021/08/29 22:04:12;;;;;;;14.10;11.40;;;;;;;13.42;74.97;98235.84;457247;1201;97397;-43
2021/08/29 22:14:16;;;;;;;14.60;10.40;;;;;;;13.41;75.01;98231.58;457139;1193;110442;-43
2021/08/29 22:24:19;;;;;;;19.00;10.80;;;;;;;13.45;75.15;98225.48;457016;1201;108181;-42
2021/08/29 22:34:23;;;;;;;19.10;11.10;;;;;;;13.46;75.20;98217.73;457181;1194;97230;-43
2021/08/29 22:44:27;;;;;;;15.80;9.30;;;;;;;13.47;75.33;98210.58;457561;1193;108991;-42
2021/08/29 22:54:30;;;;;;;14.10;9.80;;;;;;;13.36;75.22;98206.23;457299;1201;97266;-43
2021/08/29 23:04:34;;;;;;;13.40;8.40;;;;;;;13.35;75.40;98209.40;457276;1201;111488;-42
2021/08/29 23:14:37;;;;;;;10.80;8.90;;;;;;;13.25;75.66;98210.90;457150;1194;108081;-42
2021/08/29 23:24:41;;;;;;;12.00;8.80;;;;;;;13.24;75.68;98183.58;457279;1201;97243;-44
2021/08/29 23:34:44;;;;;;;17.20;10.60;;;;;;;13.27;76.01;98182.23;457333;1193;108226;-42
2021/08/29 23:44:48;;;;;;;19.80;11.50;;;;;;;13.15;75.82;98191.64;457335;1201;96407;-43
2021/08/29 23:54:51;;;;;;;13.10;10.80;;;;;;;13.06;76.06;98197.85;457252;1201;110995;-42
